FDPP

Piggs Peak

Piggs Peak, Swaziland
METAR FDPP 201500Z AUTO 13006KT //// // ////// 19/18 Q1019
Observed Flight Rules
Feb-20 @ 15:00 UTC (22 hours ago)
Wind
130° at 6 knots
Temperatures Readings
Current 19°C / 66°F
Dewpoint 18°C / 64°F
Humidity 94%
Altimeter 30.09" Hg
Pressure 1019 hPa
Elevation 1099
METAR FDPP 201500Z AUTO 13006KT //// // ////// 19/18 Q1019
Observed Flight Rules
Feb-20 @ 15:00 UTC
(22 hours ago)
Wind
130° at 6 knots
Temperature Dewpoint
19°C / 66°F 18°C / 64°F
Humidity Altimeter Pressure
94% 30.09" Hg 1019 hPa